Time,TemperatureF,DewpointF,PressureIn,WindDirection,WindDirectionDegrees,WindSpeedMPH,WindSpeedGustMPH,Humidity,HourlyPrecipIn,Conditions,Clouds,dailyrainin,SoftwareType,DateUTC
2013-09-27 00:02:00,63.3,39.2,29.70,NW,305,5.8,5.8,41,0.00,,---,0.00,VWS V14.01,2013-09-27 07:02:00,
2013-09-27 00:07:00,63.3,39.2,29.70,West,265,6.3,6.3,41,0.00,,---,0.00,VWS V14.01,2013-09-27 07:07:00,
2013-09-27 00:12:00,63.3,39.2,29.73,WNW,296,6.3,6.3,41,0.00,,---,0.00,VWS V14.01,2013-09-27 07:12:00,
2013-09-27 00:17:00,63.3,39.2,29.73,NW,306,10.5,10.5,41,0.00,,---,0.00,VWS V14.01,2013-09-27 07:17:00,
2013-09-27 00:22:00,63.3,39.2,29.73,NW,309,0.0,0.0,41,0.00,,---,0.00,VWS V14.01,2013-09-27 07:22:00,
2013-09-27 00:28:00,63.3,39.2,29.73,NNW,338,0.0,0.0,41,0.00,,---,0.00,VWS V14.01,2013-09-27 07:28:00,
2013-09-27 00:33:00,63.1,39.1,29.73,NW,325,0.0,0.0,41,0.00,,---,0.00,VWS V14.01,2013-09-27 07:33:00,
2013-09-27 00:38:00,63.1,39.1,29.73,WNW,301,0.0,0.0,41,0.00,,---,0.00,VWS V14.01,2013-09-27 07:38:00,
2013-09-27 00:43:00,63.1,39.1,29.73,WNW,303,3.6,3.6,41,0.00,,---,0.00,VWS V14.01,2013-09-27 07:43:00,
2013-09-27 00:48:00,63.1,39.1,29.73,NW,314,5.8,6.3,41,0.00,,---,0.00,VWS V14.01,2013-09-27 07:48:00,
2013-09-27 00:53:00,63.0,38.9,29.73,NNW,328,4.0,4.0,41,0.00,,---,0.00,VWS V14.01,2013-09-27 07:53:00,
2013-09-27 00:56:00,62.8,38.8,29.76,NNW,339,5.4,5.4,41,0.00,,---,0.00,VWS V14.01,2013-09-27 07:56:00,
2013-09-27 01:01:00,62.8,38.8,29.76,NW,320,7.6,8.3,41,0.00,,---,0.00,VWS V14.01,2013-09-27 08:01:00,
2013-09-27 01:06:00,62.6,38.6,29.76,NW,311,0.0,0.0,41,0.00,,---,0.00,VWS V14.01,2013-09-27 08:06:00,
2013-09-27 01:11:00,62.6,38.6,29.73,WNW,299,7.6,7.6,41,0.00,,---,0.00,VWS V14.01,2013-09-27 08:11:00,
2013-09-27 01:16:00,62.4,38.4,29.73,NW,319,5.8,6.3,41,0.00,,---,0.00,VWS V14.01,2013-09-27 08:16:00,
2013-09-27 01:21:00,62.4,38.4,29.73,WNW,293,6.3,6.7,41,0.00,,---,0.00,VWS V14.01,2013-09-27 08:21:00,
2013-09-27 01:26:00,62.2,38.3,29.76,WNW,298,4.9,4.9,41,0.00,,---,0.00,VWS V14.01,2013-09-27 08:26:00,
2013-09-27 01:31:00,62.2,38.3,29.76,WNW,297,5.4,8.1,41,0.00,,---,0.00,VWS V14.01,2013-09-27 08:31:00,
2013-09-27 01:36:00,62.2,38.3,29.76,NW,317,7.2,8.1,41,0.00,,---,0.00,VWS V14.01,2013-09-27 08:36:00,
2013-09-27 01:41:00,62.2,38.3,29.76,West,268,10.1,10.1,41,0.00,,---,0.00,VWS V14.01,2013-09-27 08:41:00,
2013-09-27 01:46:00,61.9,38.0,29.76,WNW,303,9.6,9.6,41,0.00,,---,0.00,VWS V14.01,2013-09-27 08:46:00,
2013-09-27 01:51:00,61.7,37.8,29.76,WNW,292,5.4,5.4,41,0.00,,---,0.00,VWS V14.01,2013-09-27 08:51:00,
2013-09-27 01:56:00,61.5,37.6,29.76,NW,310,5.4,5.4,41,0.00,,---,0.00,VWS V14.01,2013-09-27 08:56:00,
2013-09-27 02:01:00,61.3,37.5,29.76,WNW,303,4.9,4.9,41,0.00,,---,0.00,VWS V14.01,2013-09-27 09:01:00,
2013-09-27 02:06:00,61.3,37.5,29.76,WNW,302,8.7,8.7,41,0.00,,---,0.00,VWS V14.01,2013-09-27 09:06:00,
2013-09-27 02:11:00,61.0,37.1,29.76,NW,317,8.7,8.7,41,0.00,,---,0.00,VWS V14.01,2013-09-27 09:11:00,
2013-09-27 02:16:00,60.8,37.0,29.76,West,281,4.0,4.0,41,0.00,,---,0.00,VWS V14.01,2013-09-27 09:16:00,
2013-09-27 02:21:00,60.6,37.4,29.76,WNW,297,7.2,7.2,42,0.00,,---,0.00,VWS V14.01,2013-09-27 09:21:00,
2013-09-27 02:26:00,60.4,37.3,29.76,WNW,292,4.0,4.0,42,0.00,,---,0.00,VWS V14.01,2013-09-27 09:26:00,
2013-09-27 02:31:00,60.3,37.1,29.76,WNW,303,3.1,3.1,42,0.00,,---,0.00,VWS V14.01,2013-09-27 09:31:00,
2013-09-27 02:36:00,60.3,37.1,29.76,WNW,296,8.1,8.1,42,0.00,,---,0.00,VWS V14.01,2013-09-27 09:36:00,
2013-09-27 02:41:00,60.3,37.1,29.73,WNW,294,3.6,3.6,42,0.00,,---,0.00,VWS V14.01,2013-09-27 09:41:00,
2013-09-27 02:47:00,60.3,37.1,29.73,WNW,302,5.8,5.8,42,0.00,,---,0.00,VWS V14.01,2013-09-27 09:47:00,
2013-09-27 02:52:00,60.3,37.1,29.73,NW,307,3.1,3.1,42,0.00,,---,0.00,VWS V14.01,2013-09-27 09:52:00,
2013-09-27 02:57:00,60.1,36.9,29.76,NW,305,0.0,4.0,42,0.00,,---,0.00,VWS V14.01,2013-09-27 09:57:00,
2013-09-27 03:02:00,59.7,36.6,29.76,NW,310,5.8,5.8,42,0.00,,---,0.00,VWS V14.01,2013-09-27 10:02:00,
2013-09-27 03:07:00,59.5,36.5,29.76,WNW,300,4.0,4.0,42,0.00,,---,0.00,VWS V14.01,2013-09-27 10:07:00,
2013-09-27 03:12:00,59.4,36.3,29.76,WNW,292,0.0,5.8,42,0.00,,---,0.00,VWS V14.01,2013-09-27 10:12:00,
2013-09-27 03:17:00,59.2,36.1,29.76,NW,305,5.4,6.3,42,0.00,,---,0.00,VWS V14.01,2013-09-27 10:17:00,
2013-09-27 06:09:00,59.7,36.6,29.79,West,281,0.0,0.0,42,0.00,,---,0.00,VWS V14.01,2013-09-27 13:09:00,
2013-09-27 06:14:00,59.5,36.5,29.79,West,267,0.0,0.0,42,0.00,,---,0.00,VWS V14.01,2013-09-27 13:14:00,
2013-09-27 06:19:00,59.5,36.5,29.79,WNW,293,0.0,0.0,42,0.00,,---,0.00,VWS V14.01,2013-09-27 13:19:00,
2013-09-27 06:24:00,59.4,36.3,29.82,West,264,0.0,0.0,42,0.00,,---,0.00,VWS V14.01,2013-09-27 13:24:00,
2013-09-27 06:29:00,59.4,36.3,29.82,West,276,0.0,0.0,42,0.00,,---,0.00,VWS V14.01,2013-09-27 13:29:00,
2013-09-27 06:34:00,59.0,36.0,29.82,West,269,0.0,0.0,42,0.00,,---,0.00,VWS V14.01,2013-09-27 13:34:00,
2013-09-27 06:39:00,59.0,36.0,29.82,West,277,0.0,0.0,42,0.00,,---,0.00,VWS V14.01,2013-09-27 13:39:00,
2013-09-27 06:44:00,58.3,35.3,29.82,West,269,0.0,0.0,42,0.00,,---,0.00,VWS V14.01,2013-09-27 13:44:00,
2013-09-27 06:50:00,57.9,35.0,29.82,West,276,0.0,0.0,42,0.00,,---,0.00,VWS V14.01,2013-09-27 13:50:00,
2013-09-27 06:55:00,57.9,35.0,29.82,West,266,0.0,0.0,42,0.00,,---,0.00,VWS V14.01,2013-09-27 13:55:00,
2013-09-27 07:00:00,57.6,34.7,29.82,West,276,0.0,0.0,42,0.00,,---,0.00,VWS V14.01,2013-09-27 14:00:00,
2013-09-27 07:05:00,57.4,34.5,29.82,West,272,0.0,0.0,42,0.00,,---,0.00,VWS V14.01,2013-09-27 14:05:00,
2013-09-27 07:10:00,57.2,34.3,29.82,West,270,0.0,0.0,42,0.00,,---,0.00,VWS V14.01,2013-09-27 14:10:00,
2013-09-27 07:15:00,57.2,34.3,29.82,WNW,283,0.0,0.0,42,0.00,,---,0.00,VWS V14.01,2013-09-27 14:15:00,
2013-09-27 07:20:00,57.9,35.0,29.82,WNW,286,0.0,0.0,42,0.00,,---,0.00,VWS V14.01,2013-09-27 14:20:00,
2013-09-27 07:25:00,58.8,35.8,29.82,West,279,0.0,0.0,42,0.00,,---,0.00,VWS V14.01,2013-09-27 14:25:00,
2013-09-27 07:30:00,59.4,36.3,29.82,WNW,292,0.0,0.0,42,0.00,,---,0.00,VWS V14.01,2013-09-27 14:30:00,
2013-09-27 07:35:00,59.4,36.3,29.82,WNW,301,0.0,0.0,42,0.00,,---,0.00,VWS V14.01,2013-09-27 14:35:00,
2013-09-27 07:40:00,59.9,36.8,29.82,West,275,0.0,0.0,42,0.00,,---,0.00,VWS V14.01,2013-09-27 14:40:00,
2013-09-27 07:45:00,60.1,36.9,29.82,WNW,289,0.0,0.0,42,0.00,,---,0.00,VWS V14.01,2013-09-27 14:45:00,
2013-09-27 07:50:00,60.6,37.4,29.82,WNW,284,0.0,0.0,42,0.00,,---,0.00,VWS V14.01,2013-09-27 14:50:00,
2013-09-27 07:55:00,60.8,37.0,29.82,WNW,294,0.0,0.0,41,0.00,,---,0.00,VWS V14.01,2013-09-27 14:55:00,
2013-09-27 08:00:00,60.8,37.0,29.85,WNW,284,0.0,0.0,41,0.00,,---,0.00,VWS V14.01,2013-09-27 15:00:00,
2013-09-27 08:05:00,60.8,37.0,29.85,NNW,329,0.0,0.0,41,0.00,,---,0.00,VWS V14.01,2013-09-27 15:05:00,
2013-09-27 08:10:00,61.3,37.5,29.85,WNW,297,0.0,0.0,41,0.00,,---,0.00,VWS V14.01,2013-09-27 15:10:00,
2013-09-27 08:15:00,61.5,37.6,29.85,WNW,297,0.0,0.0,41,0.00,,---,0.00,VWS V14.01,2013-09-27 15:15:00,
2013-09-27 08:20:00,61.7,37.8,29.85,West,260,0.0,0.0,41,0.00,,---,0.00,VWS V14.01,2013-09-27 15:20:00,
2013-09-27 08:25:00,61.9,38.0,29.85,WNW,299,0.0,0.0,41,0.00,,---,0.00,VWS V14.01,2013-09-27 15:25:00,
2013-09-27 08:30:00,61.9,38.0,29.85,West,276,0.0,0.0,41,0.00,,---,0.00,VWS V14.01,2013-09-27 15:30:00,
2013-09-27 08:35:00,62.6,38.6,29.85,NW,316,0.0,0.0,41,0.00,,---,0.00,VWS V14.01,2013-09-27 15:35:00,
2013-09-27 08:40:00,62.6,38.6,29.85,WNW,286,0.0,0.0,41,0.00,,---,0.00,VWS V14.01,2013-09-27 15:40:00,
2013-09-27 08:45:00,62.8,38.8,29.85,WNW,283,0.0,0.0,41,0.00,,---,0.00,VWS V14.01,2013-09-27 15:45:00,
2013-09-27 08:50:00,63.0,38.9,29.85,West,278,0.0,0.0,41,0.00,,---,0.00,VWS V14.01,2013-09-27 15:50:00,
2013-09-27 08:55:00,63.0,38.9,29.85,WNW,285,0.0,0.0,41,0.00,,---,0.00,VWS V14.01,2013-09-27 15:55:00,
2013-09-27 09:00:00,63.3,39.2,29.85,West,271,7.6,7.6,41,0.00,,---,0.00,VWS V14.01,2013-09-27 16:00:00,
2013-09-27 09:05:00,63.5,39.4,29.85,NW,322,4.0,4.0,41,0.00,,---,0.00,VWS V14.01,2013-09-27 16:05:00,
2013-09-27 09:11:00,63.5,39.4,29.85,WNW,286,8.3,8.3,41,0.00,,---,0.00,VWS V14.01,2013-09-27 16:11:00,
2013-09-27 09:16:00,63.5,39.4,29.85,WNW,297,5.4,5.4,41,0.00,,---,0.00,VWS V14.01,2013-09-27 16:16:00,
2013-09-27 09:21:00,64.0,39.9,29.85,WNW,302,8.1,8.1,41,0.00,,---,0.00,VWS V14.01,2013-09-27 16:21:00,
2013-09-27 09:26:00,64.4,39.6,29.88,NW,307,5.8,5.8,40,0.00,,---,0.00,VWS V14.01,2013-09-27 16:26:00,
2013-09-27 09:31:00,64.4,39.6,29.88,West,274,6.3,6.3,40,0.00,,---,0.00,VWS V14.01,2013-09-27 16:31:00,
2013-09-27 09:36:00,64.9,40.1,29.88,NW,322,4.9,4.9,40,0.00,,---,0.00,VWS V14.01,2013-09-27 16:36:00,
2013-09-27 09:41:00,64.9,40.1,29.88,WNW,288,5.8,5.8,40,0.00,,---,0.00,VWS V14.01,2013-09-27 16:41:00,
2013-09-27 09:46:00,65.7,40.7,29.88,WNW,303,5.4,5.4,40,0.00,,---,0.00,VWS V14.01,2013-09-27 16:46:00,
2013-09-27 09:51:00,65.8,40.9,29.88,NNW,333,7.6,7.6,40,0.00,,---,0.00,VWS V14.01,2013-09-27 16:51:00,
2013-09-27 09:56:00,66.0,41.0,29.88,WNW,293,4.0,5.4,40,0.00,,---,0.00,VWS V14.01,2013-09-27 16:56:00,
2013-09-27 10:01:00,66.0,41.0,29.88,NW,315,6.3,6.3,40,0.00,,---,0.00,VWS V14.01,2013-09-27 17:01:00,
2013-09-27 10:06:00,65.8,40.9,29.88,NNW,346,4.0,4.0,40,0.00,,---,0.00,VWS V14.01,2013-09-27 17:06:00,
2013-09-27 10:11:00,66.2,41.2,29.88,NW,305,3.1,3.1,40,0.00,,---,0.00,VWS V14.01,2013-09-27 17:11:00,
2013-09-27 10:16:00,66.6,41.5,29.88,NW,305,3.1,3.1,40,0.00,,---,0.00,VWS V14.01,2013-09-27 17:16:00,
2013-09-27 10:21:00,66.4,41.3,29.88,NW,314,4.0,4.0,40,0.00,,---,0.00,VWS V14.01,2013-09-27 17:21:00,
2013-09-27 10:26:00,66.4,41.3,29.88,WNW,299,6.3,6.3,40,0.00,,---,0.00,VWS V14.01,2013-09-27 17:26:00,
2013-09-27 10:29:00,66.4,41.3,29.88,WNW,299,6.3,6.3,40,0.00,,---,0.00,VWS V14.01,2013-09-27 17:29:00,
2013-09-27 10:34:00,67.3,42.2,29.88,NNW,329,8.7,8.7,40,0.00,,---,0.00,VWS V14.01,2013-09-27 17:34:00,
2013-09-27 10:39:00,67.3,42.2,29.88,WNW,296,3.6,3.6,40,0.00,,---,0.00,VWS V14.01,2013-09-27 17:39:00,
2013-09-27 10:44:00,67.6,42.5,29.88,WNW,296,3.6,3.6,40,0.00,,---,0.00,VWS V14.01,2013-09-27 17:44:00,
2013-09-27 10:50:00,67.8,42.6,29.88,WSW,256,8.7,8.7,40,0.00,,---,0.00,VWS V14.01,2013-09-27 17:50:00,
2013-09-27 10:55:00,67.8,42.6,29.88,WNW,294,3.1,3.1,40,0.00,,---,0.00,VWS V14.01,2013-09-27 17:55:00,
2013-09-27 11:00:00,68.4,43.1,29.88,North,353,7.6,7.6,40,0.00,,---,0.00,VWS V14.01,2013-09-27 18:00:00,
2013-09-27 11:05:00,68.4,43.1,29.88,NNW,331,12.8,12.8,40,0.00,,---,0.00,VWS V14.01,2013-09-27 18:05:00,
2013-09-27 11:10:00,69.1,43.8,29.88,WNW,293,8.1,8.1,40,0.00,,---,0.00,VWS V14.01,2013-09-27 18:10:00,
2013-09-27 11:15:00,69.1,43.8,29.88,NNW,341,9.2,9.2,40,0.00,,---,0.00,VWS V14.01,2013-09-27 18:15:00,
2013-09-27 11:20:00,69.4,44.1,29.88,NNW,341,9.2,9.2,40,0.00,,---,0.00,VWS V14.01,2013-09-27 18:20:00,
2013-09-27 11:25:00,69.8,43.8,29.85,NNW,340,6.3,6.3,39,0.00,,---,0.00,VWS V14.01,2013-09-27 18:25:00,
2013-09-27 11:30:00,69.8,43.8,29.85,NNW,336,12.3,12.3,39,0.00,,---,0.00,VWS V14.01,2013-09-27 18:30:00,
2013-09-27 11:35:00,69.4,44.1,29.85,West,276,5.4,5.4,40,0.00,,---,0.00,VWS V14.01,2013-09-27 18:35:00,
2013-09-27 11:40:00,69.3,43.9,29.85,North,0,3.6,3.6,40,0.00,,---,0.00,VWS V14.01,2013-09-27 18:40:00,
2013-09-27 11:45:00,69.3,43.9,29.85,West,277,5.4,5.4,40,0.00,,---,0.00,VWS V14.01,2013-09-27 18:45:00,
2013-09-27 11:50:00,70.5,44.4,29.85,WSW,257,0.0,0.0,39,0.00,,---,0.00,VWS V14.01,2013-09-27 18:50:00,
2013-09-27 11:55:00,70.5,44.4,29.85,NNE,32,2.7,2.7,39,0.00,,---,0.00,VWS V14.01,2013-09-27 18:55:00,
2013-09-27 12:00:00,70.5,44.4,29.85,NE,48,0.0,0.0,39,0.00,,---,0.00,VWS V14.01,2013-09-27 19:00:00,
2013-09-27 12:05:00,70.9,44.7,29.85,NW,319,4.9,8.7,39,0.00,,---,0.00,VWS V14.01,2013-09-27 19:05:00,
2013-09-27 12:10:00,70.7,44.5,29.85,West,266,0.0,5.4,39,0.00,,---,0.00,VWS V14.01,2013-09-27 19:10:00,
2013-09-27 12:15:00,71.2,45.0,29.85,NNW,327,3.1,3.1,39,0.00,,---,0.00,VWS V14.01,2013-09-27 19:15:00,
2013-09-27 12:20:00,71.6,45.4,29.85,NW,312,6.3,6.3,39,0.00,,---,0.00,VWS V14.01,2013-09-27 19:20:00,
2013-09-27 12:25:00,71.8,45.5,29.85,North,0,5.8,5.8,39,0.00,,---,0.00,VWS V14.01,2013-09-27 19:25:00,
2013-09-27 12:30:00,71.8,45.5,29.85,WNW,289,7.6,7.6,39,0.00,,---,0.00,VWS V14.01,2013-09-27 19:30:00,
2013-09-27 12:35:00,72.3,46.0,29.85,West,261,7.6,7.6,39,0.00,,---,0.00,VWS V14.01,2013-09-27 19:35:00,
2013-09-27 12:40:00,72.5,46.2,29.85,NW,305,5.4,5.4,39,0.00,,---,0.00,VWS V14.01,2013-09-27 19:40:00,
2013-09-27 12:45:00,72.3,46.0,29.85,NW,304,0.0,0.0,39,0.00,,---,0.00,VWS V14.01,2013-09-27 19:45:00,
2013-09-27 12:50:00,72.5,46.2,29.85,NNW,329,2.7,2.7,39,0.00,,---,0.00,VWS V14.01,2013-09-27 19:50:00,
2013-09-27 12:55:00,73.0,46.6,29.85,NNW,342,4.0,4.0,39,0.00,,---,0.00,VWS V14.01,2013-09-27 19:55:00,
2013-09-27 13:00:00,73.2,46.8,29.85,WNW,285,0.0,0.0,39,0.00,,---,0.00,VWS V14.01,2013-09-27 20:00:00,
2013-09-27 13:06:00,72.9,46.5,29.85,North,10,0.0,4.9,39,0.00,,---,0.00,VWS V14.01,2013-09-27 20:06:00,
2013-09-27 13:11:00,72.9,46.5,29.85,NNE,12,6.3,6.3,39,0.00,,---,0.00,VWS V14.01,2013-09-27 20:11:00,
2013-09-27 13:16:00,73.0,46.6,29.85,NNE,26,5.4,5.4,39,0.00,,---,0.00,VWS V14.01,2013-09-27 20:16:00,
2013-09-27 13:21:00,73.4,46.3,29.85,West,278,6.3,6.3,38,0.00,,---,0.00,VWS V14.01,2013-09-27 20:21:00,
2013-09-27 13:26:00,73.6,46.4,29.85,WSW,246,6.3,6.3,38,0.00,,---,0.00,VWS V14.01,2013-09-27 20:26:00,
2013-09-27 13:31:00,73.6,46.4,29.85,NNW,333,3.1,3.1,38,0.00,,---,0.00,VWS V14.01,2013-09-27 20:31:00,
2013-09-27 13:36:00,73.9,46.8,29.85,NNE,18,4.0,4.0,38,0.00,,---,0.00,VWS V14.01,2013-09-27 20:36:00,
2013-09-27 13:41:00,73.8,46.6,29.85,North,353,10.5,10.5,38,0.00,,---,0.00,VWS V14.01,2013-09-27 20:41:00,
2013-09-27 13:46:00,73.4,46.3,29.85,North,357,5.4,5.4,38,0.00,,---,0.00,VWS V14.01,2013-09-27 20:46:00,
2013-09-27 13:51:00,73.4,46.3,29.85,East,84,4.0,4.0,38,0.00,,---,0.00,VWS V14.01,2013-09-27 20:51:00,
2013-09-27 13:56:00,73.9,46.8,29.85,WNW,297,3.6,3.6,38,0.00,,---,0.00,VWS V14.01,2013-09-27 20:56:00,
2013-09-27 14:02:00,74.1,46.9,29.85,North,0,6.3,6.3,38,0.00,,---,0.00,VWS V14.01,2013-09-27 21:02:00,
2013-09-27 14:07:00,74.1,46.9,29.85,East,80,0.0,0.0,38,0.00,,---,0.00,VWS V14.01,2013-09-27 21:07:00,
2013-09-27 14:12:00,74.1,46.9,29.85,NW,318,0.0,0.0,38,0.00,,---,0.00,VWS V14.01,2013-09-27 21:12:00,
2013-09-27 14:17:00,73.9,46.8,29.85,North,0,0.0,0.0,38,0.00,,---,0.00,VWS V14.01,2013-09-27 21:17:00,
2013-09-27 14:22:00,74.1,46.9,29.85,WNW,284,0.0,0.0,38,0.00,,---,0.00,VWS V14.01,2013-09-27 21:22:00,
2013-09-27 14:27:00,74.5,47.2,29.85,West,269,0.0,0.0,38,0.00,,---,0.00,VWS V14.01,2013-09-27 21:27:00,
2013-09-27 14:32:00,74.5,47.2,29.85,WNW,297,0.0,0.0,38,0.00,,---,0.00,VWS V14.01,2013-09-27 21:32:00,
2013-09-27 14:37:00,74.7,47.4,29.85,NW,306,0.0,0.0,38,0.00,,---,0.00,VWS V14.01,2013-09-27 21:37:00,
2013-09-27 14:42:00,74.7,47.4,29.85,NW,315,0.0,0.0,38,0.00,,---,0.00,VWS V14.01,2013-09-27 21:42:00,
2013-09-27 14:47:00,74.7,47.4,29.85,West,265,0.0,0.0,38,0.00,,---,0.00,VWS V14.01,2013-09-27 21:47:00,
2013-09-27 14:52:00,74.8,47.6,29.85,NW,306,0.0,0.0,38,0.00,,---,0.00,VWS V14.01,2013-09-27 21:52:00,
2013-09-27 14:57:00,74.8,47.6,29.85,WNW,288,0.0,0.0,38,0.00,,---,0.00,VWS V14.01,2013-09-27 21:57:00,
2013-09-27 15:02:00,74.8,47.6,29.85,West,265,0.0,0.0,38,0.00,,---,0.00,VWS V14.01,2013-09-27 22:02:00,
2013-09-27 15:07:00,74.8,47.6,29.85,NNW,332,0.0,0.0,38,0.00,,---,0.00,VWS V14.01,2013-09-27 22:07:00,
2013-09-27 15:12:00,75.0,47.7,29.85,NW,324,0.0,0.0,38,0.00,,---,0.00,VWS V14.01,2013-09-27 22:12:00,
2013-09-27 15:17:00,75.2,47.9,29.85,West,271,0.0,0.0,38,0.00,,---,0.00,VWS V14.01,2013-09-27 22:17:00,
2013-09-27 15:22:00,75.2,47.9,29.85,NW,310,0.0,0.0,38,0.00,,---,0.00,VWS V14.01,2013-09-27 22:22:00,
2013-09-27 15:27:00,75.0,47.7,29.85,NNW,337,0.0,0.0,38,0.00,,---,0.00,VWS V14.01,2013-09-27 22:27:00,
2013-09-27 15:32:00,74.8,47.6,29.85,NNW,339,0.0,0.0,38,0.00,,---,0.00,VWS V14.01,2013-09-27 22:32:00,
2013-09-27 15:37:00,74.5,47.2,29.85,NNW,340,0.0,0.0,38,0.00,,---,0.00,VWS V14.01,2013-09-27 22:37:00,
2013-09-27 15:42:00,74.8,47.6,29.85,WNW,290,0.0,0.0,38,0.00,,---,0.00,VWS V14.01,2013-09-27 22:42:00,
2013-09-27 15:47:00,75.0,47.7,29.85,NNW,330,0.0,0.0,38,0.00,,---,0.00,VWS V14.01,2013-09-27 22:47:00,
2013-09-27 15:52:00,75.2,47.9,29.85,WSW,251,0.0,0.0,38,0.00,,---,0.00,VWS V14.01,2013-09-27 22:52:00,
2013-09-27 15:57:00,75.0,47.7,29.85,West,280,0.0,0.0,38,0.00,,---,0.00,VWS V14.01,2013-09-27 22:57:00,
2013-09-27 16:02:00,75.0,47.7,29.85,West,272,0.0,0.0,38,0.00,,---,0.00,VWS V14.01,2013-09-27 23:02:00,
2013-09-27 16:08:00,74.7,47.4,29.85,WNW,295,0.0,0.0,38,0.00,,---,0.00,VWS V14.01,2013-09-27 23:08:00,
2013-09-27 16:13:00,74.7,47.4,29.85,NW,309,0.0,0.0,38,0.00,,---,0.00,VWS V14.01,2013-09-27 23:13:00,
2013-09-27 16:18:00,74.5,47.2,29.85,WNW,299,0.0,0.0,38,0.00,,---,0.00,VWS V14.01,2013-09-27 23:18:00,
2013-09-27 16:23:00,74.3,47.1,29.85,NNW,345,0.0,0.0,38,0.00,,---,0.00,VWS V14.01,2013-09-27 23:23:00,
2013-09-27 16:28:00,73.9,46.8,29.85,NW,316,0.0,0.0,38,0.00,,---,0.00,VWS V14.01,2013-09-27 23:28:00,
2013-09-27 16:33:00,73.9,46.8,29.85,NW,318,0.0,0.0,38,0.00,,---,0.00,VWS V14.01,2013-09-27 23:33:00,
2013-09-27 16:38:00,74.1,46.9,29.85,WNW,296,0.0,0.0,38,0.00,,---,0.00,VWS V14.01,2013-09-27 23:38:00,
2013-09-27 16:43:00,74.1,46.9,29.85,WNW,289,0.0,0.0,38,0.00,,---,0.00,VWS V14.01,2013-09-27 23:43:00,
2013-09-27 16:48:00,74.1,46.9,29.85,West,275,0.0,0.0,38,0.00,,---,0.00,VWS V14.01,2013-09-27 23:48:00,
2013-09-27 16:53:00,74.1,46.9,29.85,NW,307,0.0,0.0,38,0.00,,---,0.00,VWS V14.01,2013-09-27 23:53:00,
2013-09-27 16:58:00,73.9,46.8,29.85,WNW,292,0.0,0.0,38,0.00,,---,0.00,VWS V14.01,2013-09-27 23:58:00,
2013-09-27 17:03:00,73.6,46.4,29.85,West,269,0.0,0.0,38,0.00,,---,0.00,VWS V14.01,2013-09-28 00:03:00,
2013-09-27 17:08:00,73.6,46.4,29.85,West,268,0.0,0.0,38,0.00,,---,0.00,VWS V14.01,2013-09-28 00:08:00,
2013-09-27 17:13:00,73.6,46.4,29.85,WNW,290,0.0,0.0,38,0.00,,---,0.00,VWS V14.01,2013-09-28 00:13:00,
2013-09-27 17:18:00,72.9,46.5,29.85,West,267,0.0,0.0,39,0.00,,---,0.00,VWS V14.01,2013-09-28 00:18:00,
2013-09-27 17:24:00,72.5,46.2,29.85,West,271,0.0,0.0,39,0.00,,---,0.00,VWS V14.01,2013-09-28 00:24:00,
2013-09-27 17:29:00,71.4,45.2,29.85,West,274,0.0,0.0,39,0.00,,---,0.00,VWS V14.01,2013-09-28 00:29:00,
2013-09-27 17:34:00,71.4,45.2,29.85,West,262,0.0,0.0,39,0.00,,---,0.00,VWS V14.01,2013-09-28 00:34:00,
2013-09-27 17:39:00,70.3,44.2,29.88,West,265,2.7,2.7,39,0.00,,---,0.00,VWS V14.01,2013-09-28 00:39:00,
2013-09-27 17:44:00,69.8,43.8,29.88,WSW,258,0.0,0.0,39,0.00,,---,0.00,VWS V14.01,2013-09-28 00:44:00,
2013-09-27 17:49:00,69.8,43.8,29.88,WSW,247,0.0,0.0,39,0.00,,---,0.00,VWS V14.01,2013-09-28 00:49:00,
2013-09-27 17:54:00,68.4,43.1,29.88,WSW,241,0.0,0.0,40,0.00,,---,0.00,VWS V14.01,2013-09-28 00:54:00,
2013-09-27 17:59:00,67.6,42.5,29.88,WSW,241,0.0,0.0,40,0.00,,---,0.00,VWS V14.01,2013-09-28 00:59:00,
2013-09-27 18:04:00,67.1,42.0,29.88,WSW,258,4.9,4.9,40,0.00,,---,0.00,VWS V14.01,2013-09-28 01:04:00,
2013-09-27 18:09:00,66.9,41.8,29.88,WSW,245,0.0,0.0,40,0.00,,---,0.00,VWS V14.01,2013-09-28 01:09:00,
2013-09-27 18:14:00,66.4,41.3,29.88,WSW,245,0.0,0.0,40,0.00,,---,0.00,VWS V14.01,2013-09-28 01:14:00,
2013-09-27 18:19:00,66.2,41.2,29.88,WSW,248,3.6,3.6,40,0.00,,---,0.00,VWS V14.01,2013-09-28 01:19:00,
2013-09-27 18:24:00,66.2,41.2,29.88,WSW,247,4.0,4.0,40,0.00,,---,0.00,VWS V14.01,2013-09-28 01:24:00,
2013-09-27 18:29:00,66.0,41.0,29.88,WSW,251,0.0,0.0,40,0.00,,---,0.00,VWS V14.01,2013-09-28 01:29:00,
2013-09-27 18:34:00,65.7,40.7,29.88,WSW,256,0.0,0.0,40,0.00,,---,0.00,VWS V14.01,2013-09-28 01:34:00,
2013-09-27 18:39:00,65.5,40.5,29.88,West,263,3.6,3.6,40,0.00,,---,0.00,VWS V14.01,2013-09-28 01:39:00,
2013-09-27 18:44:00,64.9,40.1,29.88,West,260,0.0,0.0,40,0.00,,---,0.00,VWS V14.01,2013-09-28 01:44:00,
2013-09-27 18:49:00,64.8,39.9,29.88,West,260,5.4,6.3,40,0.00,,---,0.00,VWS V14.01,2013-09-28 01:49:00,
2013-09-27 18:54:00,64.9,40.1,29.88,West,271,7.2,7.2,40,0.00,,---,0.00,VWS V14.01,2013-09-28 01:54:00,
2013-09-27 18:59:00,65.1,40.2,29.88,West,271,5.8,7.6,40,0.00,,---,0.00,VWS V14.01,2013-09-28 01:59:00,
2013-09-27 19:04:00,65.5,40.5,29.88,West,266,4.9,4.9,40,0.00,,---,0.00,VWS V14.01,2013-09-28 02:04:00,
2013-09-27 19:09:00,65.5,40.5,29.88,West,262,8.7,8.7,40,0.00,,---,0.00,VWS V14.01,2013-09-28 02:09:00,
2013-09-27 19:14:00,64.8,39.9,29.88,West,267,6.3,6.3,40,0.00,,---,0.00,VWS V14.01,2013-09-28 02:14:00,
2013-09-27 19:19:00,64.2,40.0,29.88,West,267,5.8,5.8,41,0.00,,---,0.00,VWS V14.01,2013-09-28 02:19:00,
2013-09-27 19:25:00,64.2,40.0,29.91,West,277,5.4,5.4,41,0.00,,---,0.00,VWS V14.01,2013-09-28 02:25:00,
2013-09-27 19:30:00,63.7,39.6,29.91,West,276,4.9,4.9,41,0.00,,---,0.00,VWS V14.01,2013-09-28 02:30:00,
2013-09-27 19:35:00,63.7,39.6,29.91,West,263,4.9,4.9,41,0.00,,---,0.00,VWS V14.01,2013-09-28 02:35:00,
2013-09-27 19:40:00,63.1,39.1,29.91,West,262,4.0,4.0,41,0.00,,---,0.00,VWS V14.01,2013-09-28 02:40:00,
2013-09-27 19:45:00,63.1,39.1,29.91,WSW,253,6.3,6.3,41,0.00,,---,0.00,VWS V14.01,2013-09-28 02:45:00,
2013-09-27 19:50:00,63.1,39.1,29.91,West,263,4.9,5.8,41,0.00,,---,0.00,VWS V14.01,2013-09-28 02:50:00,
2013-09-27 19:55:00,62.8,38.8,29.91,West,264,3.6,4.9,41,0.00,,---,0.00,VWS V14.01,2013-09-28 02:55:00,
2013-09-27 20:00:00,62.8,38.8,29.91,West,265,3.1,4.9,41,0.00,,---,0.00,VWS V14.01,2013-09-28 03:00:00,
2013-09-27 20:05:00,62.6,38.6,29.91,WSW,253,5.8,5.8,41,0.00,,---,0.00,VWS V14.01,2013-09-28 03:05:00,
2013-09-27 20:10:00,62.6,38.6,29.91,West,271,4.9,4.9,41,0.00,,---,0.00,VWS V14.01,2013-09-28 03:10:00,
2013-09-27 20:15:00,62.6,38.6,29.91,West,276,5.4,5.4,41,0.00,,---,0.00,VWS V14.01,2013-09-28 03:15:00,
2013-09-27 20:20:00,62.1,38.1,29.91,West,274,5.8,5.8,41,0.00,,---,0.00,VWS V14.01,2013-09-28 03:20:00,
2013-09-27 20:25:00,61.9,38.0,29.91,West,274,5.8,5.8,41,0.00,,---,0.00,VWS V14.01,2013-09-28 03:25:00,
2013-09-27 20:30:00,61.7,37.8,29.91,West,269,3.6,3.6,41,0.00,,---,0.00,VWS V14.01,2013-09-28 03:30:00,
2013-09-27 20:35:00,61.5,37.6,29.91,WSW,257,5.8,5.8,41,0.00,,---,0.00,VWS V14.01,2013-09-28 03:35:00,
2013-09-27 20:40:00,61.5,37.6,29.94,WSW,257,5.8,5.8,41,0.00,,---,0.00,VWS V14.01,2013-09-28 03:40:00,
2013-09-27 20:45:00,61.0,37.1,29.94,West,278,0.0,0.0,41,0.00,,---,0.00,VWS V14.01,2013-09-28 03:45:00,
2013-09-27 20:50:00,60.8,37.0,29.94,West,278,0.0,0.0,41,0.00,,---,0.00,VWS V14.01,2013-09-28 03:50:00,
2013-09-27 20:56:00,59.2,36.1,29.94,North,357,0.0,0.0,42,0.00,,---,0.00,VWS V14.01,2013-09-28 03:56:00,
2013-09-27 21:01:00,59.2,36.1,29.94,North,357,0.0,0.0,42,0.00,,---,0.00,VWS V14.01,2013-09-28 04:01:00,
2013-09-27 21:02:00,59.2,36.1,29.94,North,357,0.0,0.0,42,0.00,,---,0.00,VWS V14.01,2013-09-28 04:02:00,
2013-09-27 21:05:00,59.2,36.1,29.94,North,357,0.0,0.0,42,0.00,,---,0.00,VWS V14.01,2013-09-28 04:05:00,
2013-09-27 21:10:00,57.9,35.0,29.94,NW,318,0.0,0.0,42,0.00,,---,0.00,VWS V14.01,2013-09-28 04:10:00,
2013-09-27 21:15:00,58.1,35.2,29.94,NW,318,0.0,0.0,42,0.00,,---,0.00,VWS V14.01,2013-09-28 04:15:00,
2013-09-27 21:20:00,57.7,34.8,29.94,NW,318,0.0,0.0,42,0.00,,---,0.00,VWS V14.01,2013-09-28 04:20:00,
2013-09-27 21:25:00,57.6,34.7,29.94,NW,318,0.0,0.0,42,0.00,,---,0.00,VWS V14.01,2013-09-28 04:25:00,
2013-09-27 21:30:00,57.6,34.7,29.94,NW,318,0.0,0.0,42,0.00,,---,0.00,VWS V14.01,2013-09-28 04:30:00,
2013-09-27 21:35:00,56.7,33.8,29.94,NW,318,0.0,0.0,42,0.00,,---,0.00,VWS V14.01,2013-09-28 04:35:00,
2013-09-27 21:40:00,56.5,33.7,29.94,NW,318,0.0,0.0,42,0.00,,---,0.00,VWS V14.01,2013-09-28 04:40:00,
2013-09-27 21:45:00,56.3,33.5,29.94,NW,318,0.0,0.0,42,0.00,,---,0.00,VWS V14.01,2013-09-28 04:45:00,
2013-09-27 21:50:00,56.5,33.7,29.94,SW,218,0.0,0.0,42,0.00,,---,0.00,VWS V14.01,2013-09-28 04:50:00,
2013-09-27 21:55:00,57.2,34.3,29.94,SW,222,0.0,0.0,42,0.00,,---,0.00,VWS V14.01,2013-09-28 04:55:00,
2013-09-27 22:00:00,57.2,34.3,29.94,SW,222,0.0,0.0,42,0.00,,---,0.00,VWS V14.01,2013-09-28 05:00:00,
2013-09-27 22:05:00,56.5,33.7,29.94,SW,222,0.0,0.0,42,0.00,,---,0.00,VWS V14.01,2013-09-28 05:05:00,
2013-09-27 22:10:00,56.5,33.7,29.97,SW,222,0.0,0.0,42,0.00,,---,0.00,VWS V14.01,2013-09-28 05:10:00,
2013-09-27 22:16:00,55.4,32.7,29.97,SW,222,0.0,0.0,42,0.00,,---,0.00,VWS V14.01,2013-09-28 05:16:00,
2013-09-27 22:21:00,55.0,33.0,29.97,SW,222,0.0,0.0,43,0.00,,---,0.00,VWS V14.01,2013-09-28 05:21:00,
2013-09-27 22:26:00,54.5,32.5,29.97,SW,222,0.0,0.0,43,0.00,,---,0.00,VWS V14.01,2013-09-28 05:26:00,
2013-09-27 22:31:00,54.1,32.2,29.97,SW,222,0.0,0.0,43,0.00,,---,0.00,VWS V14.01,2013-09-28 05:31:00,
2013-09-27 22:36:00,53.6,31.7,29.97,SW,222,0.0,0.0,43,0.00,,---,0.00,VWS V14.01,2013-09-28 05:36:00,
2013-09-27 22:41:00,53.1,31.2,29.97,SW,222,0.0,0.0,43,0.00,,---,0.00,VWS V14.01,2013-09-28 05:41:00,
2013-09-27 22:46:00,53.1,31.2,29.97,SW,222,0.0,0.0,43,0.00,,---,0.00,VWS V14.01,2013-09-28 05:46:00,
2013-09-27 22:51:00,53.1,31.2,29.97,SW,222,0.0,0.0,43,0.00,,---,0.00,VWS V14.01,2013-09-28 05:51:00,
2013-09-27 22:56:00,53.4,31.5,29.97,SW,222,0.0,0.0,43,0.00,,---,0.00,VWS V14.01,2013-09-28 05:56:00,
2013-09-27 23:01:00,53.4,31.5,29.97,SW,222,0.0,0.0,43,0.00,,---,0.00,VWS V14.01,2013-09-28 06:01:00,
2013-09-27 23:06:00,53.4,31.5,29.97,SW,221,0.0,0.0,43,0.00,,---,0.00,VWS V14.01,2013-09-28 06:06:00,
2013-09-27 23:11:00,53.1,31.2,29.97,SW,221,0.0,0.0,43,0.00,,---,0.00,VWS V14.01,2013-09-28 06:11:00,
2013-09-27 23:16:00,53.1,31.2,29.97,SW,221,0.0,0.0,43,0.00,,---,0.00,VWS V14.01,2013-09-28 06:16:00,
2013-09-27 23:21:00,53.2,31.3,29.97,SW,221,0.0,0.0,43,0.00,,---,0.00,VWS V14.01,2013-09-28 06:21:00,
2013-09-27 23:26:00,53.2,31.3,29.97,SW,221,0.0,0.0,43,0.00,,---,0.00,VWS V14.01,2013-09-28 06:26:00,
2013-09-27 23:32:00,54.0,32.0,29.97,SW,221,0.0,0.0,43,0.00,,---,0.00,VWS V14.01,2013-09-28 06:32:00,
2013-09-27 23:37:00,54.0,32.0,29.97,SW,221,0.0,0.0,43,0.00,,---,0.00,VWS V14.01,2013-09-28 06:37:00,
2013-09-27 23:42:00,53.4,31.5,29.97,SW,221,0.0,0.0,43,0.00,,---,0.00,VWS V14.01,2013-09-28 06:42:00,
2013-09-27 23:47:00,53.1,31.2,29.97,SW,221,0.0,0.0,43,0.00,,---,0.00,VWS V14.01,2013-09-28 06:47:00,
2013-09-27 23:52:00,53.1,31.2,29.97,SW,221,0.0,0.0,43,0.00,,---,0.00,VWS V14.01,2013-09-28 06:52:00,
2013-09-27 23:57:00,53.1,31.2,29.97,SW,221,0.0,0.0,43,0.00,,---,0.00,VWS V14.01,2013-09-28 06:57:00,